createdAt,value
2022-11-25T00:00:41.449Z,0.40
2022-11-25T00:06:14.819Z,0.31
2022-11-25T00:11:38.929Z,0.35
2022-11-25T00:17:00.735Z,0.52
2022-11-25T00:22:22.515Z,0.36
2022-11-25T00:27:44.286Z,0.11
2022-11-25T00:33:06.606Z,0.21
2022-11-25T00:38:28.764Z,0.34
2022-11-25T00:43:50.605Z,0.35
2022-11-25T00:49:12.386Z,0.34
2022-11-25T00:54:34.525Z,0.44
2022-11-25T00:59:56.571Z,0.43
2022-11-25T01:05:18.325Z,0.43
2022-11-25T01:10:40.101Z,-0.02
2022-11-25T01:16:06.238Z,0.14
2022-11-25T01:21:31.021Z,-0.03
2022-11-25T01:26:54.887Z,0.15
2022-11-25T01:32:16.657Z,0.10
2022-11-25T01:37:38.679Z,0.05
2022-11-25T01:43:00.505Z,-0.04
2022-11-25T01:48:27.832Z,-0.08
2022-11-25T01:53:51.480Z,-0.05
2022-11-25T01:59:14.058Z,-0.09
2022-11-25T02:04:39.239Z,-0.05
2022-11-25T02:10:06.262Z,-0.06
2022-11-25T02:15:31.493Z,-0.16
2022-11-25T02:20:53.728Z,-0.05
2022-11-25T02:26:15.859Z,-0.05
2022-11-25T02:31:37.680Z,-0.08
2022-11-25T02:36:59.878Z,-0.04
2022-11-25T02:42:23.805Z,0.04
2022-11-25T02:47:45.583Z,0.02
2022-11-25T02:53:07.419Z,0.08
2022-11-25T02:58:29.678Z,0.18
2022-11-25T03:03:51.430Z,0.22
2022-11-25T03:09:13.209Z,0.22
2022-11-25T03:14:35.160Z,0.10
2022-11-25T03:19:57.169Z,-0.12
2022-11-25T03:25:19.126Z,0.11
2022-11-25T03:30:41.189Z,0.02
2022-11-25T03:36:03.170Z,-0.08
2022-11-25T03:41:24.981Z,0.06
2022-11-25T03:46:46.796Z,0.19
2022-11-25T03:52:08.747Z,0.34
2022-11-25T03:57:30.680Z,0.44
2022-11-25T04:02:52.840Z,0.17
2022-11-25T04:08:14.690Z,0.23
2022-11-25T04:13:36.558Z,0.07
2022-11-25T04:18:58.343Z,0.06
2022-11-25T04:24:20.854Z,0.26
2022-11-25T04:29:42.627Z,0.39
2022-11-25T04:35:05.151Z,0.52
2022-11-25T04:40:26.923Z,0.18
2022-11-25T04:46:13.145Z,0.17
2022-11-25T04:51:30.755Z,0.06
2022-11-25T04:56:52.579Z,0.37
2022-11-25T05:02:25.975Z,0.53
2022-11-25T05:07:48.075Z,0.67
2022-11-25T05:13:09.982Z,0.60
2022-11-25T05:18:31.769Z,0.56
2022-11-25T05:23:55.955Z,0.59
2022-11-25T05:29:18.255Z,0.22
2022-11-25T05:34:40.987Z,0.19
2022-11-25T05:40:03.124Z,0.10
2022-11-25T05:45:24.913Z,0.12
2022-11-25T05:50:46.670Z,0.20
2022-11-25T05:56:10.203Z,0.14
2022-11-25T06:01:32.246Z,0.07
2022-11-25T06:06:54.053Z,0.06
2022-11-25T06:12:15.873Z,0.14
2022-11-25T06:17:37.891Z,0.43
2022-11-25T06:22:59.819Z,0.46
2022-11-25T06:28:21.648Z,0.51
2022-11-25T06:33:46.772Z,0.66
2022-11-25T06:39:08.979Z,0.67
2022-11-25T06:44:30.797Z,0.81
2022-11-25T06:49:52.660Z,0.94
2022-11-25T06:55:14.611Z,0.92
2022-11-25T07:00:36.351Z,1.14
2022-11-25T07:05:59.493Z,1.23
2022-11-25T07:11:27.502Z,1.33
2022-11-25T07:16:49.324Z,1.45
2022-11-25T07:22:11.179Z,1.41
2022-11-25T07:27:35.141Z,1.37
2022-11-25T07:32:56.989Z,1.46
2022-11-25T07:38:18.844Z,1.36
2022-11-25T07:43:43.862Z,1.48
2022-11-25T07:49:08.507Z,1.50
2022-11-25T07:54:30.315Z,1.72
2022-11-25T07:59:52.267Z,1.78
2022-11-25T08:05:14.211Z,1.96
2022-11-25T08:10:40.140Z,1.95
2022-11-25T08:16:02.536Z,1.66
2022-11-25T08:21:25.093Z,1.79
2022-11-25T08:26:46.992Z,2.01
2022-11-25T08:32:11.980Z,1.97
2022-11-25T08:37:33.997Z,1.96
2022-11-25T08:42:55.789Z,1.88
2022-11-25T08:48:19.625Z,2.05
2022-11-25T08:53:43.258Z,2.20
2022-11-25T08:59:05.336Z,2.23
2022-11-25T09:04:27.183Z,2.18
2022-11-25T09:09:49.074Z,2.33
2022-11-25T09:15:11.280Z,2.51
2022-11-25T09:20:33.934Z,2.44
2022-11-25T09:25:57.729Z,2.35
2022-11-25T09:31:20.293Z,1.97
2022-11-25T09:36:44.335Z,1.93
2022-11-25T09:42:08.863Z,2.04
2022-11-25T09:47:57.204Z,2.03
2022-11-25T09:53:35.071Z,2.05
2022-11-25T09:59:05.502Z,1.90
2022-11-25T10:04:34.606Z,1.73
2022-11-25T10:09:56.682Z,1.77
2022-11-25T10:15:25.119Z,1.70
2022-11-25T10:20:50.674Z,1.73
2022-11-25T10:26:14.904Z,1.66
2022-11-25T10:31:37.274Z,1.73
2022-11-25T10:37:02.116Z,1.81
2022-11-25T10:42:26.946Z,1.86
2022-11-25T10:48:11.685Z,1.76
2022-11-25T10:53:33.506Z,2.01
2022-11-25T10:58:55.343Z,1.82
2022-11-25T11:04:17.198Z,1.63
2022-11-25T11:09:40.213Z,1.75
2022-11-25T11:15:22.027Z,1.67
2022-11-25T11:20:50.300Z,1.74
2022-11-25T11:26:23.403Z,1.75
2022-11-25T11:31:48.956Z,1.78
2022-11-25T11:37:33.888Z,1.60
2022-11-25T11:43:34.285Z,1.79
2022-11-25T11:49:05.156Z,1.53
2022-11-25T11:54:52.549Z,1.62
2022-11-25T12:00:17.580Z,1.71
2022-11-25T12:05:39.738Z,1.71
2022-11-25T12:11:12.465Z,1.61
2022-11-25T12:16:40.296Z,1.53
2022-11-25T12:22:19.777Z,1.63
2022-11-25T12:28:06.908Z,1.56
2022-11-25T12:33:40.156Z,1.65
2022-11-25T12:39:12.503Z,1.63
2022-11-25T12:44:49.480Z,1.86
2022-11-25T12:50:36.677Z,1.84
2022-11-25T12:56:02.681Z,1.72
2022-11-25T13:01:39.886Z,1.73
2022-11-25T13:07:10.149Z,1.75
2022-11-25T13:13:05.198Z,1.77
2022-11-25T13:18:30.933Z,1.69
2022-11-25T13:23:55.578Z,1.69
2022-11-25T13:29:17.719Z,1.83
2022-11-25T13:34:39.645Z,1.77
2022-11-25T13:40:23.330Z,1.77
2022-11-25T13:45:45.358Z,1.88
2022-11-25T13:51:24.692Z,1.89
2022-11-25T13:57:00.040Z,1.84
2022-11-25T14:02:28.187Z,1.93
2022-11-25T14:07:59.321Z,1.93
2022-11-25T14:13:51.951Z,1.93
2022-11-25T14:19:51.124Z,1.85
2022-11-25T14:25:24.542Z,1.76
2022-11-25T14:30:53.613Z,1.59
2022-11-25T14:36:21.655Z,1.57
2022-11-25T14:41:57.660Z,1.52
2022-11-25T14:47:24.095Z,1.64
2022-11-25T14:52:46.345Z,1.32
2022-11-25T14:58:12.509Z,1.51
2022-11-25T15:03:34.514Z,1.69
2022-11-25T15:08:58.747Z,1.52
2022-11-25T15:14:26.488Z,1.56
2022-11-25T15:19:48.484Z,1.48
2022-11-25T15:25:15.035Z,1.51
2022-11-25T15:30:36.777Z,1.36
2022-11-25T15:35:58.622Z,1.47
2022-11-25T15:41:31.954Z,1.44
2022-11-25T15:47:01.721Z,1.48
2022-11-25T15:52:24.912Z,1.61
2022-11-25T15:57:51.288Z,1.70
2022-11-25T16:03:19.391Z,1.48
2022-11-25T16:08:55.378Z,1.73
2022-11-25T16:14:28.247Z,1.49
2022-11-25T16:19:50.368Z,1.69
2022-11-25T16:25:16.188Z,1.62
2022-11-25T16:30:38.117Z,1.42
2022-11-25T16:36:01.560Z,1.50
2022-11-25T16:41:25.707Z,1.58
2022-11-25T16:46:47.568Z,1.48
2022-11-25T16:52:09.465Z,1.54
2022-11-25T16:57:31.309Z,1.45
2022-11-25T17:02:53.133Z,1.51
2022-11-25T17:08:15.027Z,1.61
2022-11-25T17:13:42.066Z,1.67
2022-11-25T17:19:03.911Z,1.58
2022-11-25T17:24:25.769Z,1.62
2022-11-25T17:29:48.772Z,1.61
2022-11-25T17:35:19.242Z,1.58
2022-11-25T17:40:43.113Z,1.49
2022-11-25T17:46:05.094Z,1.66
2022-11-25T17:51:26.909Z,1.46
2022-11-25T17:56:52.327Z,1.36
2022-11-25T18:02:19.627Z,1.24
2022-11-25T18:07:43.186Z,1.48
2022-11-25T18:13:05.628Z,1.49
2022-11-25T18:18:27.471Z,1.53
2022-11-25T18:23:49.314Z,1.54
2022-11-25T18:29:24.393Z,1.55
2022-11-25T18:34:46.666Z,1.42
2022-11-25T18:40:09.343Z,1.27
2022-11-25T18:45:36.488Z,1.50
2022-11-25T18:50:58.457Z,1.39
2022-11-25T18:56:20.279Z,1.48
2022-11-25T19:01:46.828Z,1.45
2022-11-25T19:07:11.435Z,1.48
2022-11-25T19:12:33.375Z,1.64
2022-11-25T19:18:01.296Z,1.52
2022-11-25T19:23:25.301Z,1.50
2022-11-25T19:28:50.015Z,1.39
2022-11-25T19:34:25.788Z,1.45
2022-11-25T19:39:50.178Z,1.47
2022-11-25T19:45:13.089Z,1.47
2022-11-25T19:50:38.440Z,1.50
2022-11-25T19:56:00.207Z,1.58
2022-11-25T20:01:30.545Z,1.50
2022-11-25T20:06:52.419Z,1.50
2022-11-25T20:12:28.001Z,1.70
2022-11-25T20:17:55.952Z,1.73
2022-11-25T20:23:25.908Z,1.65
2022-11-25T20:28:47.733Z,1.73
2022-11-25T20:34:09.562Z,1.81
2022-11-25T20:39:31.415Z,1.96
2022-11-25T20:44:57.329Z,1.89
2022-11-25T20:50:20.681Z,1.75
2022-11-25T20:55:43.384Z,1.91
2022-11-25T21:01:05.425Z,1.94
2022-11-25T21:06:29.929Z,1.89
2022-11-25T21:11:51.768Z,1.88
2022-11-25T21:17:13.622Z,2.04
2022-11-25T21:22:41.001Z,2.06
2022-11-25T21:28:04.042Z,2.12
2022-11-25T21:33:25.851Z,2.17
2022-11-25T21:38:49.843Z,2.05
2022-11-25T21:44:19.293Z,1.87
2022-11-25T21:49:41.379Z,1.89
2022-11-25T21:55:03.302Z,1.77
2022-11-25T22:00:26.041Z,1.58
2022-11-25T22:05:50.089Z,1.88
2022-11-25T22:11:14.917Z,1.69
2022-11-25T22:16:36.837Z,1.86
2022-11-25T22:21:58.824Z,1.73
2022-11-25T22:27:25.909Z,1.66
2022-11-25T22:32:55.951Z,1.81
2022-11-25T22:38:18.763Z,1.75
2022-11-25T22:43:51.228Z,1.71
2022-11-25T22:49:33.287Z,1.73
2022-11-25T22:54:57.973Z,1.67
2022-11-25T23:00:23.128Z,1.73
2022-11-25T23:05:45.074Z,1.68
2022-11-25T23:11:07.176Z,1.73
2022-11-25T23:16:29.099Z,1.94
2022-11-25T23:21:50.917Z,2.09
2022-11-25T23:27:13.775Z,2.20
2022-11-25T23:32:35.741Z,2.24
2022-11-25T23:37:58.284Z,2.16
2022-11-25T23:43:20.230Z,2.00
2022-11-25T23:48:45.778Z,1.97
2022-11-25T23:54:14.775Z,1.86
2022-11-25T23:59:36.548Z,1.85
